sensor_id;sensor_type;location;lat;lon;timestamp;temperature;humidity
54846;DHT22;53889;50.084;8.646;2024-03-08T00:02:07;6.40;92.90
54846;DHT22;53889;50.084;8.646;2024-03-08T00:04:34;6.40;92.80
54846;DHT22;53889;50.084;8.646;2024-03-08T00:07:01;6.20;92.80
54846;DHT22;53889;50.084;8.646;2024-03-08T00:09:27;6.30;92.80
54846;DHT22;53889;50.084;8.646;2024-03-08T00:11:56;6.10;92.90
54846;DHT22;53889;50.084;8.646;2024-03-08T00:14:25;6.10;93.00
54846;DHT22;53889;50.084;8.646;2024-03-08T00:16:53;6.00;92.90
54846;DHT22;53889;50.084;8.646;2024-03-08T00:19:20;5.90;93.00
54846;DHT22;53889;50.084;8.646;2024-03-08T00:21:46;6.00;93.00
54846;DHT22;53889;50.084;8.646;2024-03-08T00:24:13;5.90;92.90
54846;DHT22;53889;50.084;8.646;2024-03-08T00:26:41;5.90;93.00
54846;DHT22;53889;50.084;8.646;2024-03-08T00:29:08;5.80;93.10
54846;DHT22;53889;50.084;8.646;2024-03-08T00:31:37;5.70;93.10
54846;DHT22;53889;50.084;8.646;2024-03-08T00:34:03;5.70;93.30
54846;DHT22;53889;50.084;8.646;2024-03-08T00:36:30;5.70;93.30
54846;DHT22;53889;50.084;8.646;2024-03-08T00:38:57;5.60;93.40
54846;DHT22;53889;50.084;8.646;2024-03-08T00:41:26;5.60;93.50
54846;DHT22;53889;50.084;8.646;2024-03-08T00:43:53;5.60;93.50
54846;DHT22;53889;50.084;8.646;2024-03-08T00:46:19;5.70;93.50
54846;DHT22;53889;50.084;8.646;2024-03-08T00:48:47;5.50;93.60
54846;DHT22;53889;50.084;8.646;2024-03-08T00:51:14;5.60;93.80
54846;DHT22;53889;50.084;8.646;2024-03-08T00:53:41;6.90;94.30
54846;DHT22;53889;50.084;8.646;2024-03-08T00:56:08;6.70;94.30
54846;DHT22;53889;50.084;8.646;2024-03-08T00:58:36;5.50;93.80
54846;DHT22;53889;50.084;8.646;2024-03-08T01:01:03;5.50;93.90
54846;DHT22;53889;50.084;8.646;2024-03-08T01:03:30;8.20;94.60
54846;DHT22;53889;50.084;8.646;2024-03-08T01:05:59;5.40;94.00
54846;DHT22;53889;50.084;8.646;2024-03-08T01:08:27;7.40;94.70
54846;DHT22;53889;50.084;8.646;2024-03-08T01:10:54;7.10;94.60
54846;DHT22;53889;50.084;8.646;2024-03-08T01:13:20;5.30;94.30
54846;DHT22;53889;50.084;8.646;2024-03-08T01:15:47;5.30;94.40
54846;DHT22;53889;50.084;8.646;2024-03-08T01:18:14;5.30;94.50
54846;DHT22;53889;50.084;8.646;2024-03-08T01:20:41;5.20;94.50
54846;DHT22;53889;50.084;8.646;2024-03-08T01:23:09;5.20;94.70
54846;DHT22;53889;50.084;8.646;2024-03-08T01:25:36;5.20;94.70
54846;DHT22;53889;50.084;8.646;2024-03-08T01:28:03;5.10;94.70
54846;DHT22;53889;50.084;8.646;2024-03-08T01:30:30;5.20;94.70
54846;DHT22;53889;50.084;8.646;2024-03-08T01:32:58;5.20;94.70
54846;DHT22;53889;50.084;8.646;2024-03-08T01:35:24;6.60;95.20
54846;DHT22;53889;50.084;8.646;2024-03-08T01:37:52;5.10;94.90
54846;DHT22;53889;50.084;8.646;2024-03-08T01:40:21;5.60;95.00
54846;DHT22;53889;50.084;8.646;2024-03-08T01:42:48;5.00;95.00
54846;DHT22;53889;50.084;8.646;2024-03-08T01:45:14;5.10;95.10
54846;DHT22;53889;50.084;8.646;2024-03-08T01:47:42;5.10;95.10
54846;DHT22;53889;50.084;8.646;2024-03-08T01:50:09;5.00;95.20
54846;DHT22;53889;50.084;8.646;2024-03-08T01:52:36;5.00;95.30
54846;DHT22;53889;50.084;8.646;2024-03-08T01:55:05;5.00;95.30
54846;DHT22;53889;50.084;8.646;2024-03-08T01:57:34;5.00;95.40
54846;DHT22;53889;50.084;8.646;2024-03-08T02:00:04;4.90;95.40
54846;DHT22;53889;50.084;8.646;2024-03-08T02:02:32;4.90;95.40
54846;DHT22;53889;50.084;8.646;2024-03-08T02:05:00;5.00;95.60
54846;DHT22;53889;50.084;8.646;2024-03-08T02:07:28;5.00;95.60
54846;DHT22;53889;50.084;8.646;2024-03-08T02:09:55;5.00;95.50
54846;DHT22;53889;50.084;8.646;2024-03-08T02:12:22;5.00;95.50
54846;DHT22;53889;50.084;8.646;2024-03-08T02:14:50;5.20;95.60
54846;DHT22;53889;50.084;8.646;2024-03-08T02:17:17;4.90;95.60
54846;DHT22;53889;50.084;8.646;2024-03-08T02:19:43;4.90;95.60
54846;DHT22;53889;50.084;8.646;2024-03-08T02:22:11;4.90;95.60
54846;DHT22;53889;50.084;8.646;2024-03-08T02:24:39;4.80;95.70
54846;DHT22;53889;50.084;8.646;2024-03-08T02:27:05;4.70;95.90
54846;DHT22;53889;50.084;8.646;2024-03-08T02:29:34;4.70;95.90
54846;DHT22;53889;50.084;8.646;2024-03-08T02:32:00;4.70;96.00
54846;DHT22;53889;50.084;8.646;2024-03-08T02:34:28;4.60;96.00
54846;DHT22;53889;50.084;8.646;2024-03-08T02:36:56;4.60;96.00
54846;DHT22;53889;50.084;8.646;2024-03-08T02:39:25;4.60;96.10
54846;DHT22;53889;50.084;8.646;2024-03-08T02:41:53;4.40;96.20
54846;DHT22;53889;50.084;8.646;2024-03-08T02:44:19;4.50;96.20
54846;DHT22;53889;50.084;8.646;2024-03-08T02:46:47;4.50;96.30
54846;DHT22;53889;50.084;8.646;2024-03-08T02:49:13;4.40;96.40
54846;DHT22;53889;50.084;8.646;2024-03-08T02:51:41;4.40;96.50
54846;DHT22;53889;50.084;8.646;2024-03-08T02:54:08;5.70;97.00
54846;DHT22;53889;50.084;8.646;2024-03-08T02:56:37;4.10;96.70
54846;DHT22;53889;50.084;8.646;2024-03-08T02:59:04;4.30;96.80
54846;DHT22;53889;50.084;8.646;2024-03-08T03:01:30;4.20;96.90
54846;DHT22;53889;50.084;8.646;2024-03-08T03:03:58;6.30;97.40
54846;DHT22;53889;50.084;8.646;2024-03-08T03:06:25;4.20;97.10
54846;DHT22;53889;50.084;8.646;2024-03-08T03:08:51;4.10;97.10
54846;DHT22;53889;50.084;8.646;2024-03-08T03:11:19;4.10;97.20
54846;DHT22;53889;50.084;8.646;2024-03-08T03:13:47;4.20;97.20
54846;DHT22;53889;50.084;8.646;2024-03-08T03:16:17;5.30;97.50
54846;DHT22;53889;50.084;8.646;2024-03-08T04:30:24;3.80;99.00
54846;DHT22;53889;50.084;8.646;2024-03-08T04:32:53;3.70;99.20
54846;DHT22;53889;50.084;8.646;2024-03-08T04:35:20;3.70;99.10
54846;DHT22;53889;50.084;8.646;2024-03-08T04:37:47;3.70;99.20
54846;DHT22;53889;50.084;8.646;2024-03-08T04:40:14;3.70;99.40
54846;DHT22;53889;50.084;8.646;2024-03-08T04:42:42;3.70;99.20
54846;DHT22;53889;50.084;8.646;2024-03-08T04:45:09;3.60;99.30
54846;DHT22;53889;50.084;8.646;2024-03-08T04:47:39;3.60;99.40
54846;DHT22;53889;50.084;8.646;2024-03-08T04:50:06;3.60;99.50
54846;DHT22;53889;50.084;8.646;2024-03-08T04:52:34;3.60;99.50
54846;DHT22;53889;50.084;8.646;2024-03-08T04:55:02;3.50;99.60
54846;DHT22;53889;50.084;8.646;2024-03-08T04:57:30;3.50;99.70
54846;DHT22;53889;50.084;8.646;2024-03-08T04:59:57;3.60;99.70
54846;DHT22;53889;50.084;8.646;2024-03-08T05:02:24;3.50;99.70
54846;DHT22;53889;50.084;8.646;2024-03-08T05:04:53;3.40;99.90
54846;DHT22;53889;50.084;8.646;2024-03-08T05:07:20;3.40;99.90
54846;DHT22;53889;50.084;8.646;2024-03-08T05:09:47;3.30;99.90
54846;DHT22;53889;50.084;8.646;2024-03-08T05:12:17;4.20;99.90
54846;DHT22;53889;50.084;8.646;2024-03-08T05:14:44;3.20;99.90
54846;DHT22;53889;50.084;8.646;2024-03-08T05:17:12;3.20;99.90
54846;DHT22;53889;50.084;8.646;2024-03-08T05:19:39;5.20;99.90
54846;DHT22;53889;50.084;8.646;2024-03-08T05:22:07;3.20;99.90
54846;DHT22;53889;50.084;8.646;2024-03-08T05:24:34;3.20;99.90
54846;DHT22;53889;50.084;8.646;2024-03-08T05:27:01;3.70;99.90
54846;DHT22;53889;50.084;8.646;2024-03-08T05:29:29;3.20;99.90
54846;DHT22;53889;50.084;8.646;2024-03-08T05:31:55;3.20;99.90
54846;DHT22;53889;50.084;8.646;2024-03-08T05:34:23;3.50;99.90
54846;DHT22;53889;50.084;8.646;2024-03-08T05:36:50;4.70;99.90
54846;DHT22;53889;50.084;8.646;2024-03-08T05:39:19;3.20;99.90
54846;DHT22;53889;50.084;8.646;2024-03-08T05:41:46;3.30;99.90
54846;DHT22;53889;50.084;8.646;2024-03-08T05:44:13;5.30;99.90
54846;DHT22;53889;50.084;8.646;2024-03-08T05:46:40;4.40;99.90
54846;DHT22;53889;50.084;8.646;2024-03-08T05:49:07;3.30;99.90
54846;DHT22;53889;50.084;8.646;2024-03-08T05:51:36;3.20;99.90
54846;DHT22;53889;50.084;8.646;2024-03-08T05:54:05;3.20;99.90
54846;DHT22;53889;50.084;8.646;2024-03-08T05:56:33;4.70;99.90
54846;DHT22;53889;50.084;8.646;2024-03-08T05:59:01;3.30;99.90
54846;DHT22;53889;50.084;8.646;2024-03-08T06:01:28;3.20;99.90
54846;DHT22;53889;50.084;8.646;2024-03-08T06:03:56;3.20;99.90
54846;DHT22;53889;50.084;8.646;2024-03-08T06:06:25;3.30;99.90
54846;DHT22;53889;50.084;8.646;2024-03-08T06:08:52;3.30;99.90
54846;DHT22;53889;50.084;8.646;2024-03-08T06:11:21;3.30;99.90
54846;DHT22;53889;50.084;8.646;2024-03-08T06:13:49;3.30;99.90
54846;DHT22;53889;50.084;8.646;2024-03-08T06:16:16;3.20;99.90
54846;DHT22;53889;50.084;8.646;2024-03-08T06:18:43;3.30;99.90
54846;DHT22;53889;50.084;8.646;2024-03-08T06:21:09;3.30;99.90
54846;DHT22;53889;50.084;8.646;2024-03-08T06:23:38;3.30;99.90
54846;DHT22;53889;50.084;8.646;2024-03-08T06:26:05;5.80;99.90
54846;DHT22;53889;50.084;8.646;2024-03-08T06:28:31;3.40;99.90
54846;DHT22;53889;50.084;8.646;2024-03-08T06:31:01;4.50;99.90
54846;DHT22;53889;50.084;8.646;2024-03-08T06:33:29;4.30;99.90
54846;DHT22;53889;50.084;8.646;2024-03-08T06:35:58;3.50;99.90
54846;DHT22;53889;50.084;8.646;2024-03-08T06:38:24;3.60;99.90
54846;DHT22;53889;50.084;8.646;2024-03-08T06:40:51;3.50;99.90
54846;DHT22;53889;50.084;8.646;2024-03-08T06:43:18;3.50;99.90
54846;DHT22;53889;50.084;8.646;2024-03-08T06:45:45;3.70;99.90
54846;DHT22;53889;50.084;8.646;2024-03-08T08:08:35;10.50;90.40
54846;DHT22;53889;50.084;8.646;2024-03-08T08:11:02;11.40;88.20
54846;DHT22;53889;50.084;8.646;2024-03-08T08:13:29;11.70;86.60
54846;DHT22;53889;50.084;8.646;2024-03-08T08:15:58;11.70;86.40
54846;DHT22;53889;50.084;8.646;2024-03-08T08:18:25;11.30;86.60
54846;DHT22;53889;50.084;8.646;2024-03-08T08:20:52;11.50;86.30
54846;DHT22;53889;50.084;8.646;2024-03-08T08:23:18;12.20;85.00
54846;DHT22;53889;50.084;8.646;2024-03-08T08:25:47;13.00;84.10
54846;DHT22;53889;50.084;8.646;2024-03-08T08:28:15;12.70;83.10
54846;DHT22;53889;50.084;8.646;2024-03-08T08:30:44;14.50;84.20
54846;DHT22;53889;50.084;8.646;2024-03-08T08:33:10;12.70;83.10
54846;DHT22;53889;50.084;8.646;2024-03-08T08:35:37;13.50;82.80
54846;DHT22;53889;50.084;8.646;2024-03-08T08:38:04;13.00;82.00
54846;DHT22;53889;50.084;8.646;2024-03-08T08:40:33;13.10;82.30
54846;DHT22;53889;50.084;8.646;2024-03-08T08:43:03;13.30;81.50
54846;DHT22;53889;50.084;8.646;2024-03-08T08:45:30;13.70;80.20
54846;DHT22;53889;50.084;8.646;2024-03-08T08:47:57;13.70;80.00
54846;DHT22;53889;50.084;8.646;2024-03-08T08:50:25;13.60;80.30
54846;DHT22;53889;50.084;8.646;2024-03-08T08:52:52;13.60;79.10
54846;DHT22;53889;50.084;8.646;2024-03-08T08:55:19;14.50;80.60
54846;DHT22;53889;50.084;8.646;2024-03-08T08:57:50;14.10;80.00
54846;DHT22;53889;50.084;8.646;2024-03-08T09:00:19;14.30;78.90
54846;DHT22;53889;50.084;8.646;2024-03-08T09:02:47;14.50;78.10
54846;DHT22;53889;50.084;8.646;2024-03-08T09:05:14;14.60;77.60
54846;DHT22;53889;50.084;8.646;2024-03-08T09:07:42;14.90;77.80
54846;DHT22;53889;50.084;8.646;2024-03-08T09:10:11;15.00;75.30
54846;DHT22;53889;50.084;8.646;2024-03-08T09:12:39;14.30;76.90
54846;DHT22;53889;50.084;8.646;2024-03-08T09:15:07;14.50;76.80
54846;DHT22;53889;50.084;8.646;2024-03-08T09:17:37;14.30;77.20
54846;DHT22;53889;50.084;8.646;2024-03-08T09:20:07;14.50;76.30
54846;DHT22;53889;50.084;8.646;2024-03-08T09:22:34;14.00;76.50
54846;DHT22;53889;50.084;8.646;2024-03-08T09:25:00;13.90;76.70
54846;DHT22;53889;50.084;8.646;2024-03-08T09:27:27;13.10;77.40
54846;DHT22;53889;50.084;8.646;2024-03-08T09:29:54;13.00;79.60
54846;DHT22;53889;50.084;8.646;2024-03-08T09:32:21;13.30;78.60
54846;DHT22;53889;50.084;8.646;2024-03-08T09:34:49;14.70;78.60
54846;DHT22;53889;50.084;8.646;2024-03-08T09:37:17;12.90;77.80
54846;DHT22;53889;50.084;8.646;2024-03-08T09:39:44;11.70;81.10
54846;DHT22;53889;50.084;8.646;2024-03-08T09:42:11;12.20;80.70
54846;DHT22;53889;50.084;8.646;2024-03-08T09:44:43;12.60;80.40
54846;DHT22;53889;50.084;8.646;2024-03-08T09:47:12;13.10;78.60
54846;DHT22;53889;50.084;8.646;2024-03-08T09:49:39;12.70;78.30
54846;DHT22;53889;50.084;8.646;2024-03-08T09:52:08;15.10;80.00
54846;DHT22;53889;50.084;8.646;2024-03-08T09:54:35;12.70;78.70
54846;DHT22;53889;50.084;8.646;2024-03-08T09:57:04;15.30;79.70
54846;DHT22;53889;50.084;8.646;2024-03-08T09:59:31;13.00;77.50
54846;DHT22;53889;50.084;8.646;2024-03-08T10:02:16;13.50;77.40
54846;DHT22;53889;50.084;8.646;2024-03-08T10:04:44;13.60;77.00
54846;DHT22;53889;50.084;8.646;2024-03-08T10:07:14;13.90;76.70
54846;DHT22;53889;50.084;8.646;2024-03-08T10:09:41;14.00;76.10
54846;DHT22;53889;50.084;8.646;2024-03-08T10:12:12;14.40;76.00
54846;DHT22;53889;50.084;8.646;2024-03-08T10:14:40;14.20;75.20
54846;DHT22;53889;50.084;8.646;2024-03-08T10:17:07;14.80;75.80
54846;DHT22;53889;50.084;8.646;2024-03-08T10:19:34;15.80;72.70
54846;DHT22;53889;50.084;8.646;2024-03-08T10:22:01;15.40;72.60
54846;DHT22;53889;50.084;8.646;2024-03-08T10:24:31;14.50;73.60
54846;DHT22;53889;50.084;8.646;2024-03-08T10:26:59;15.30;73.20
54846;DHT22;53889;50.084;8.646;2024-03-08T10:29:30;15.30;73.30
54846;DHT22;53889;50.084;8.646;2024-03-08T10:31:57;15.30;72.50
54846;DHT22;53889;50.084;8.646;2024-03-08T10:34:24;15.50;71.60
54846;DHT22;53889;50.084;8.646;2024-03-08T10:36:51;18.20;73.10
54846;DHT22;53889;50.084;8.646;2024-03-08T10:39:21;16.00;71.20
54846;DHT22;53889;50.084;8.646;2024-03-08T10:41:53;17.60;71.30
54846;DHT22;53889;50.084;8.646;2024-03-08T10:44:49;15.90;71.40
54846;DHT22;53889;50.084;8.646;2024-03-08T10:47:25;17.80;71.10
54846;DHT22;53889;50.084;8.646;2024-03-08T10:50:05;17.60;71.20
54846;DHT22;53889;50.084;8.646;2024-03-08T10:52:36;15.60;70.30
54846;DHT22;53889;50.084;8.646;2024-03-08T10:55:03;15.60;70.40
54846;DHT22;53889;50.084;8.646;2024-03-08T10:57:41;16.30;69.70
54846;DHT22;53889;50.084;8.646;2024-03-08T11:00:08;15.90;69.20
54846;DHT22;53889;50.084;8.646;2024-03-08T11:02:37;15.10;70.20
54846;DHT22;53889;50.084;8.646;2024-03-08T11:05:04;15.50;70.30
54846;DHT22;53889;50.084;8.646;2024-03-08T11:07:33;15.30;68.90
54846;DHT22;53889;50.084;8.646;2024-03-08T11:10:02;14.80;69.80
54846;DHT22;53889;50.084;8.646;2024-03-08T11:12:36;15.50;69.90
54846;DHT22;53889;50.084;8.646;2024-03-08T11:15:10;15.80;70.00
54846;DHT22;53889;50.084;8.646;2024-03-08T11:17:44;15.70;69.30
54846;DHT22;53889;50.084;8.646;2024-03-08T11:20:12;16.10;68.50
54846;DHT22;53889;50.084;8.646;2024-03-08T11:22:42;15.90;68.40
54846;DHT22;53889;50.084;8.646;2024-03-08T11:25:36;16.80;68.70
54846;DHT22;53889;50.084;8.646;2024-03-08T11:28:11;17.10;67.60
54846;DHT22;53889;50.084;8.646;2024-03-08T11:30:46;17.50;65.90
54846;DHT22;53889;50.084;8.646;2024-03-08T11:33:14;16.60;66.50
54846;DHT22;53889;50.084;8.646;2024-03-08T11:35:42;16.90;66.80
54846;DHT22;53889;50.084;8.646;2024-03-08T11:38:12;15.50;69.10
54846;DHT22;53889;50.084;8.646;2024-03-08T11:40:40;16.10;67.70
54846;DHT22;53889;50.084;8.646;2024-03-08T11:43:07;16.80;67.80
54846;DHT22;53889;50.084;8.646;2024-03-08T11:45:34;17.10;66.80
54846;DHT22;53889;50.084;8.646;2024-03-08T11:48:04;17.60;65.70
54846;DHT22;53889;50.084;8.646;2024-03-08T11:50:31;17.90;65.00
54846;DHT22;53889;50.084;8.646;2024-03-08T11:53:03;17.40;65.10
54846;DHT22;53889;50.084;8.646;2024-03-08T11:55:30;16.90;65.70
54846;DHT22;53889;50.084;8.646;2024-03-08T11:58:05;15.80;67.10
54846;DHT22;53889;50.084;8.646;2024-03-08T12:00:33;15.70;68.60
54846;DHT22;53889;50.084;8.646;2024-03-08T12:03:06;16.40;67.80
54846;DHT22;53889;50.084;8.646;2024-03-08T12:05:33;17.10;66.50
54846;DHT22;53889;50.084;8.646;2024-03-08T12:08:01;16.90;65.50
54846;DHT22;53889;50.084;8.646;2024-03-08T12:10:28;17.10;65.90
54846;DHT22;53889;50.084;8.646;2024-03-08T12:12:57;17.20;65.20
54846;DHT22;53889;50.084;8.646;2024-03-08T12:15:25;17.80;66.50
54846;DHT22;53889;50.084;8.646;2024-03-08T12:17:53;16.00;67.10
54846;DHT22;53889;50.084;8.646;2024-03-08T12:20:24;16.20;67.30
54846;DHT22;53889;50.084;8.646;2024-03-08T12:22:52;15.60;67.70
54846;DHT22;53889;50.084;8.646;2024-03-08T12:25:19;17.00;68.70
54846;DHT22;53889;50.084;8.646;2024-03-08T12:27:46;15.60;68.40
54846;DHT22;53889;50.084;8.646;2024-03-08T12:30:21;15.40;68.10
54846;DHT22;53889;50.084;8.646;2024-03-08T12:32:52;15.60;67.80
54846;DHT22;53889;50.084;8.646;2024-03-08T12:35:22;15.00;68.70
54846;DHT22;53889;50.084;8.646;2024-03-08T12:37:50;16.10;69.30
54846;DHT22;53889;50.084;8.646;2024-03-08T12:40:18;15.40;68.90
54846;DHT22;53889;50.084;8.646;2024-03-08T12:42:46;15.30;68.90
54846;DHT22;53889;50.084;8.646;2024-03-08T12:45:14;15.70;69.10
54846;DHT22;53889;50.084;8.646;2024-03-08T12:47:41;16.20;67.80
54846;DHT22;53889;50.084;8.646;2024-03-08T12:50:09;16.70;67.40
54846;DHT22;53889;50.084;8.646;2024-03-08T12:52:38;16.30;66.70
54846;DHT22;53889;50.084;8.646;2024-03-08T12:55:06;16.60;68.00
54846;DHT22;53889;50.084;8.646;2024-03-08T12:57:35;16.90;66.10
54846;DHT22;53889;50.084;8.646;2024-03-08T13:00:04;16.50;67.20
54846;DHT22;53889;50.084;8.646;2024-03-08T13:02:32;17.20;66.40
54846;DHT22;53889;50.084;8.646;2024-03-08T13:04:59;17.40;65.70
54846;DHT22;53889;50.084;8.646;2024-03-08T13:07:26;18.00;66.70
54846;DHT22;53889;50.084;8.646;2024-03-08T13:09:55;16.30;66.50
54846;DHT22;53889;50.084;8.646;2024-03-08T13:12:22;16.40;67.70
54846;DHT22;53889;50.084;8.646;2024-03-08T13:14:49;17.20;67.50
54846;DHT22;53889;50.084;8.646;2024-03-08T13:17:16;17.70;65.90
54846;DHT22;53889;50.084;8.646;2024-03-08T13:19:44;17.50;65.30
54846;DHT22;53889;50.084;8.646;2024-03-08T13:22:10;17.70;65.50
54846;DHT22;53889;50.084;8.646;2024-03-08T13:24:39;20.30;66.60
54846;DHT22;53889;50.084;8.646;2024-03-08T13:27:08;19.10;65.40
54846;DHT22;53889;50.084;8.646;2024-03-08T13:29:46;20.30;65.20
54846;DHT22;53889;50.084;8.646;2024-03-08T13:32:14;18.70;64.20
54846;DHT22;53889;50.084;8.646;2024-03-08T13:34:41;18.30;64.90
54846;DHT22;53889;50.084;8.646;2024-03-08T13:37:08;18.50;64.10
54846;DHT22;53889;50.084;8.646;2024-03-08T13:39:37;18.00;64.20
54846;DHT22;53889;50.084;8.646;2024-03-08T13:42:10;17.90;64.40
54846;DHT22;53889;50.084;8.646;2024-03-08T13:44:43;17.60;64.60
54846;DHT22;53889;50.084;8.646;2024-03-08T13:47:11;16.50;66.00
54846;DHT22;53889;50.084;8.646;2024-03-08T13:49:39;16.10;67.20
54846;DHT22;53889;50.084;8.646;2024-03-08T13:52:06;15.80;67.50
54846;DHT22;53889;50.084;8.646;2024-03-08T13:54:34;15.10;68.70
54846;DHT22;53889;50.084;8.646;2024-03-08T13:57:01;13.70;69.90
54846;DHT22;53889;50.084;8.646;2024-03-08T13:59:31;16.60;72.50
54846;DHT22;53889;50.084;8.646;2024-03-08T14:01:58;13.90;71.40
54846;DHT22;53889;50.084;8.646;2024-03-08T14:04:27;14.60;72.00
54846;DHT22;53889;50.084;8.646;2024-03-08T14:06:54;13.90;71.90
54846;DHT22;53889;50.084;8.646;2024-03-08T14:09:23;13.60;72.60
54846;DHT22;53889;50.084;8.646;2024-03-08T14:11:50;13.50;72.80
54846;DHT22;53889;50.084;8.646;2024-03-08T14:14:19;13.60;73.20
54846;DHT22;53889;50.084;8.646;2024-03-08T14:16:47;13.30;73.10
54846;DHT22;53889;50.084;8.646;2024-03-08T14:19:14;13.70;74.50
54846;DHT22;53889;50.084;8.646;2024-03-08T14:21:41;14.30;74.90
54846;DHT22;53889;50.084;8.646;2024-03-08T14:24:09;16.10;76.40
54846;DHT22;53889;50.084;8.646;2024-03-08T14:26:36;14.40;75.50
54846;DHT22;53889;50.084;8.646;2024-03-08T14:29:04;13.20;74.80
54846;DHT22;53889;50.084;8.646;2024-03-08T14:31:31;13.10;74.20
54846;DHT22;53889;50.084;8.646;2024-03-08T14:33:59;14.10;75.30
54846;DHT22;53889;50.084;8.646;2024-03-08T14:36:26;13.20;74.60
54846;DHT22;53889;50.084;8.646;2024-03-08T14:38:53;13.40;75.40
54846;DHT22;53889;50.084;8.646;2024-03-08T14:41:20;12.60;75.20
54846;DHT22;53889;50.084;8.646;2024-03-08T14:43:47;15.40;77.50
54846;DHT22;53889;50.084;8.646;2024-03-08T14:46:15;14.10;76.90
54846;DHT22;53889;50.084;8.646;2024-03-08T14:48:43;15.30;77.20
54846;DHT22;53889;50.084;8.646;2024-03-08T14:51:11;12.70;75.80
54846;DHT22;53889;50.084;8.646;2024-03-08T14:53:40;12.60;75.40
54846;DHT22;53889;50.084;8.646;2024-03-08T14:56:16;12.50;75.50
54846;DHT22;53889;50.084;8.646;2024-03-08T14:58:45;11.50;76.00
54846;DHT22;53889;50.084;8.646;2024-03-08T15:01:42;12.30;76.10
54846;DHT22;53889;50.084;8.646;2024-03-08T15:04:10;12.60;76.00
54846;DHT22;53889;50.084;8.646;2024-03-08T15:06:40;12.00;76.00
54846;DHT22;53889;50.084;8.646;2024-03-08T15:09:08;12.20;76.10
54846;DHT22;53889;50.084;8.646;2024-03-08T15:11:44;13.30;76.90
54846;DHT22;53889;50.084;8.646;2024-03-08T15:14:11;12.50;75.20
54846;DHT22;53889;50.084;8.646;2024-03-08T15:16:39;12.30;75.70
54846;DHT22;53889;50.084;8.646;2024-03-08T15:19:07;12.40;75.60
54846;DHT22;53889;50.084;8.646;2024-03-08T15:21:34;13.40;76.20
54846;DHT22;53889;50.084;8.646;2024-03-08T15:24:03;12.10;75.70
54846;DHT22;53889;50.084;8.646;2024-03-08T15:26:35;12.20;75.90
54846;DHT22;53889;50.084;8.646;2024-03-08T15:29:02;12.40;76.20
54846;DHT22;53889;50.084;8.646;2024-03-08T15:31:30;12.30;76.40
54846;DHT22;53889;50.084;8.646;2024-03-08T15:33:58;12.10;75.80
54846;DHT22;53889;50.084;8.646;2024-03-08T15:36:32;12.10;76.10
54846;DHT22;53889;50.084;8.646;2024-03-08T15:38:59;13.70;77.20
54846;DHT22;53889;50.084;8.646;2024-03-08T15:41:28;13.30;76.60
54846;DHT22;53889;50.084;8.646;2024-03-08T15:43:55;12.40;77.10
54846;DHT22;53889;50.084;8.646;2024-03-08T15:49:04;12.10;75.70
54846;DHT22;53889;50.084;8.646;2024-03-08T15:51:31;12.20;75.90
54846;DHT22;53889;50.084;8.646;2024-03-08T15:53:58;13.00;76.30
54846;DHT22;53889;50.084;8.646;2024-03-08T15:56:25;12.90;76.20
54846;DHT22;53889;50.084;8.646;2024-03-08T15:58:53;12.30;75.70
54846;DHT22;53889;50.084;8.646;2024-03-08T16:01:21;14.20;76.30
54846;DHT22;53889;50.084;8.646;2024-03-08T16:03:48;12.30;75.50
54846;DHT22;53889;50.084;8.646;2024-03-08T16:06:15;12.20;75.30
54846;DHT22;53889;50.084;8.646;2024-03-08T16:08:46;12.20;75.30
54846;DHT22;53889;50.084;8.646;2024-03-08T16:11:13;12.20;75.10
54846;DHT22;53889;50.084;8.646;2024-03-08T16:13:40;12.10;75.20
54846;DHT22;53889;50.084;8.646;2024-03-08T16:16:09;13.00;76.30
54846;DHT22;53889;50.084;8.646;2024-03-08T16:18:35;12.90;76.20
54846;DHT22;53889;50.084;8.646;2024-03-08T16:21:03;12.10;76.40
54846;DHT22;53889;50.084;8.646;2024-03-08T16:23:31;12.20;76.30
54846;DHT22;53889;50.084;8.646;2024-03-08T16:25:57;14.90;77.60
54846;DHT22;53889;50.084;8.646;2024-03-08T16:28:24;12.30;76.20
54846;DHT22;53889;50.084;8.646;2024-03-08T16:30:54;13.40;75.80
54846;DHT22;53889;50.084;8.646;2024-03-08T16:33:22;12.20;75.40
54846;DHT22;53889;50.084;8.646;2024-03-08T16:35:49;12.20;76.10
54846;DHT22;53889;50.084;8.646;2024-03-08T16:38:17;12.10;75.90
54846;DHT22;53889;50.084;8.646;2024-03-08T16:40:46;12.10;75.70
54846;DHT22;53889;50.084;8.646;2024-03-08T16:43:13;14.70;77.00
54846;DHT22;53889;50.084;8.646;2024-03-08T16:45:41;12.80;76.50
54846;DHT22;53889;50.084;8.646;2024-03-08T16:48:09;14.70;77.80
54846;DHT22;53889;50.084;8.646;2024-03-08T16:50:37;12.00;76.00
54846;DHT22;53889;50.084;8.646;2024-03-08T16:53:06;12.00;76.30
54846;DHT22;53889;50.084;8.646;2024-03-08T16:55:33;12.00;76.20
54846;DHT22;53889;50.084;8.646;2024-03-08T16:58:01;12.00;76.50
54846;DHT22;53889;50.084;8.646;2024-03-08T17:00:30;12.20;76.50
54846;DHT22;53889;50.084;8.646;2024-03-08T17:02:59;11.80;76.50
54846;DHT22;53889;50.084;8.646;2024-03-08T17:05:28;11.80;76.60
54846;DHT22;53889;50.084;8.646;2024-03-08T17:07:58;11.70;76.60
54846;DHT22;53889;50.084;8.646;2024-03-08T17:10:26;11.60;76.70
54846;DHT22;53889;50.084;8.646;2024-03-08T17:12:54;11.60;77.10
54846;DHT22;53889;50.084;8.646;2024-03-08T17:15:24;11.60;77.10
54846;DHT22;53889;50.084;8.646;2024-03-08T17:17:56;11.60;77.30
54846;DHT22;53889;50.084;8.646;2024-03-08T17:20:25;11.80;77.30
54846;DHT22;53889;50.084;8.646;2024-03-08T17:22:54;11.40;77.20
54846;DHT22;53889;50.084;8.646;2024-03-08T17:25:24;11.50;77.50
54846;DHT22;53889;50.084;8.646;2024-03-08T17:27:52;11.30;77.50
54846;DHT22;53889;50.084;8.646;2024-03-08T17:30:20;11.70;77.60
54846;DHT22;53889;50.084;8.646;2024-03-08T17:32:50;11.30;77.40
54846;DHT22;53889;50.084;8.646;2024-03-08T17:35:18;11.20;77.80
54846;DHT22;53889;50.084;8.646;2024-03-08T17:37:46;11.20;77.80
54846;DHT22;53889;50.084;8.646;2024-03-08T17:40:17;11.20;77.90
54846;DHT22;53889;50.084;8.646;2024-03-08T17:42:49;11.10;78.10
54846;DHT22;53889;50.084;8.646;2024-03-08T17:45:17;11.40;78.50
54846;DHT22;53889;50.084;8.646;2024-03-08T17:47:44;11.90;78.80
54846;DHT22;53889;50.084;8.646;2024-03-08T17:50:12;11.10;78.30
54846;DHT22;53889;50.084;8.646;2024-03-08T17:52:41;11.00;78.40
54846;DHT22;53889;50.084;8.646;2024-03-08T17:55:09;11.00;78.50
54846;DHT22;53889;50.084;8.646;2024-03-08T17:57:40;10.90;78.70
54846;DHT22;53889;50.084;8.646;2024-03-08T18:00:10;11.00;78.80
54846;DHT22;53889;50.084;8.646;2024-03-08T18:02:43;11.00;79.00
54846;DHT22;53889;50.084;8.646;2024-03-08T18:05:11;10.90;79.00
54846;DHT22;53889;50.084;8.646;2024-03-08T18:07:39;11.20;79.40
54846;DHT22;53889;50.084;8.646;2024-03-08T18:10:07;12.00;80.00
54846;DHT22;53889;50.084;8.646;2024-03-08T18:12:35;11.00;80.00
54846;DHT22;53889;50.084;8.646;2024-03-08T18:15:02;10.90;79.70
54846;DHT22;53889;50.084;8.646;2024-03-08T18:17:30;10.90;80.00
54846;DHT22;53889;50.084;8.646;2024-03-08T18:19:59;10.80;80.40